Bray, Oklahoma
Current Conditions -  °F | °C
As of 1:15 PM on Sunday 21 Dec 2014 (Local Time) from KDUC Reporting Station
Overcast Overcast  
Wind Chill: 42°   Ceiling: 1000
Heat Index: 48°   Visibility: NA
Dew Point: 46°   Wind: 16mph
Humidity: 93%   Direction: 180°S
Pressure: 29.86"   Gusts: NA
Location:  34.61°N, 97.82°W
Report Text: KDUC 211915Z AUTO 18014KT BKN010 OVC015 09/08 A2986 RMK AO2 PWINO
Loading
Personal Weather Stations






























Interactive Weather Map New forecast layout! Learn more

10-Day Weather Forecast

Advertisements
Track Severe Weather on mobile